Time;durP1;ratioP1;P1;durP2;ratioP2;P2;SDS_P1;SDS_P2;PMS_P1;PMS_P2;Temp;Humidity;BMP_temperature;BMP_pressure;BME280_temperature;BME280_humidity;BME280_pressure;Samples;Min_cycle;Max_cycle;Signal;HPM_P1;HPM_P2
2021/05/24 00:00:16;;;;;;;1.02;0.7;;;12.7;99.9;;;;;;;;;
2021/05/24 00:01:02;;;;;;;1.02;0.7;;;12.7;99.9;;;;;;;;;
2021/05/24 00:02:02;;;;;;;2.92;0.7;;;12.6;99.9;;;;;;;;;
2021/05/24 00:02:30;;;;;;;2.15;1.1;;;12.6;99.9;;;;;;;;;
2021/05/24 00:03:02;;;;;;;2.15;1.1;;;12.6;99.9;;;;;;;;;
2021/05/24 00:03:16;;;;;;;2.6;0.9;;;12.6;99.9;;;;;;;;;
2021/05/24 00:04:02;;;;;;;2.6;0.9;;;12.6;99.9;;;;;;;;;
2021/05/24 00:04:12;;;;;;;1.75;0.82;;;12.6;99.9;;;;;;;;;
2021/05/24 00:04:43;;;;;;;1.75;0.82;;;12.6;99.9;;;;;;;;;
2021/05/24 00:05:02;;;;;;;1.75;0.82;;;12.6;99.9;;;;;;;;;
2021/05/24 00:05:13;;;;;;;0.98;0.77;;;12.7;99.9;;;;;;;;;
2021/05/24 00:05:29;;;;;;;0.98;0.77;;;12.7;99.9;;;;;;;;;
2021/05/24 00:06:02;;;;;;;0.98;0.77;;;12.7;99.9;;;;;;;;;
2021/05/24 00:06:15;;;;;;;1.02;0.6;;;12.7;99.9;;;;;;;;;
2021/05/24 00:06:25;;;;;;;1.02;0.6;;;12.7;99.9;;;;;;;;;
2021/05/24 00:06:56;;;;;;;1.02;0.6;;;12.7;99.9;;;;;;;;;
2021/05/24 00:07:02;;;;;;;1.02;0.6;;;12.7;99.9;;;;;;;;;
2021/05/24 00:07:16;;;;;;;1.42;0.7;;;12.7;99.9;;;;;;;;;
2021/05/24 00:07:27;;;;;;;1.42;0.7;;;12.7;99.9;;;;;;;;;
2021/05/24 00:07:42;;;;;;;1.42;0.7;;;12.7;99.9;;;;;;;;;
2021/05/24 00:08:02;;;;;;;1.42;0.7;;;12.7;99.9;;;;;;;;;
2021/05/24 00:08:13;;;;;;;2.35;0.7;;;12.7;99.9;;;;;;;;;
2021/05/24 00:08:28;;;;;;;2.35;0.7;;;12.7;99.9;;;;;;;;;
2021/05/24 00:08:38;;;;;;;2.35;0.7;;;12.7;99.9;;;;;;;;;
2021/05/24 00:09:02;;;;;;;2.35;0.7;;;12.7;99.9;;;;;;;;;
2021/05/24 00:09:09;;;;;;;2.35;0.7;;;12.7;99.9;;;;;;;;;
2021/05/24 00:09:14;;;;;;;1.27;0.77;;;12.7;99.9;;;;;;;;;
2021/05/24 00:09:35;;;;;;;1.27;0.77;;;12.7;99.9;;;;;;;;;
2021/05/24 00:09:40;;;;;;;1.27;0.77;;;12.7;99.9;;;;;;;;;
2021/05/24 00:09:55;;;;;;;1.27;0.77;;;12.7;99.9;;;;;;;;;
2021/05/24 00:10:02;;;;;;;1.27;0.77;;;12.7;99.9;;;;;;;;;
2021/05/24 00:10:16;;;;;;;2.03;0.7;;;12.8;99.9;;;;;;;;;
2021/05/24 00:10:26;;;;;;;2.03;0.7;;;12.8;99.9;;;;;;;;;
2021/05/24 00:10:41;;;;;;;2.03;0.7;;;12.8;99.9;;;;;;;;;
2021/05/24 00:10:51;;;;;;;2.03;0.7;;;12.8;99.9;;;;;;;;;
2021/05/24 00:11:02;;;;;;;2.03;0.7;;;12.8;99.9;;;;;;;;;
2021/05/24 00:11:18;;;;;;;1.17;0.9;;;12.7;99.9;;;;;;;;;
2021/05/24 00:11:27;;;;;;;1.17;0.9;;;12.7;99.9;;;;;;;;;
2021/05/24 00:11:51;;;;;;;1.17;0.9;;;12.7;99.9;;;;;;;;;
2021/05/24 00:11:54;;;;;;;1.17;0.9;;;12.7;99.9;;;;;;;;;
2021/05/24 00:12:02;;;;;;;1.17;0.9;;;12.7;99.9;;;;;;;;;
2021/05/24 00:12:08;;;;;;;1.17;0.9;;;12.7;99.9;;;;;;;;;
2021/05/24 00:12:13;;;;;;;2.7;0.8;;;12.7;99.9;;;;;;;;;
2021/05/24 00:12:29;;;;;;;2.7;0.8;;;12.7;99.9;;;;;;;;;
2021/05/24 00:12:46;;;;;;;2.7;0.8;;;12.7;99.9;;;;;;;;;
2021/05/24 00:13:01;;;;;;;2.7;0.8;;;12.7;99.9;;;;;;;;;
2021/05/24 00:13:03;;;;;;;2.7;0.8;;;12.7;99.9;;;;;;;;;
2021/05/24 00:13:05;;;;;;;2.7;0.8;;;12.7;99.9;;;;;;;;;
2021/05/24 00:13:15;;;;;;;0.8;0.8;;;12.7;99.9;;;;;;;;;
2021/05/24 00:13:30;;;;;;;0.8;0.8;;;12.7;99.9;;;;;;;;;
2021/05/24 00:13:45;;;;;;;0.8;0.8;;;12.7;99.9;;;;;;;;;
2021/05/24 00:14:03;;;;;;;0.8;0.8;;;12.7;99.9;;;;;;;;;
2021/05/24 00:14:06;;;;;;;0.8;0.8;;;12.7;99.9;;;;;;;;;
2021/05/24 00:14:07;;;;;;;0.8;0.8;;;12.7;99.9;;;;;;;;;
2021/05/24 00:14:18;;;;;;;2.3;0.9;;;12.7;99.9;;;;;;;;;
2021/05/24 00:14:28;;;;;;;2.3;0.9;;;12.7;99.9;;;;;;;;;
2021/05/24 00:14:45;;;;;;;2.3;0.9;;;12.7;99.9;;;;;;;;;
2021/05/24 00:14:57;;;;;;;2.3;0.9;;;12.7;99.9;;;;;;;;;
2021/05/24 00:15:02;;;;;;;2.3;0.9;;;12.7;99.9;;;;;;;;;
2021/05/24 00:15:12;;;;;;;1.48;0.73;;;12.7;99.9;;;;;;;;;
2021/05/24 00:15:18;;;;;;;1.48;0.73;;;12.7;99.9;;;;;;;;;
2021/05/24 00:15:28;;;;;;;1.48;0.73;;;12.7;99.9;;;;;;;;;
2021/05/24 00:15:43;;;;;;;1.48;0.73;;;12.7;99.9;;;;;;;;;
2021/05/24 00:15:59;;;;;;;1.48;0.73;;;12.7;99.9;;;;;;;;;
2021/05/24 00:16:02;;;;;;;1.48;0.73;;;12.7;99.9;;;;;;;;;
2021/05/24 00:16:14;;;;;;;1.42;0.7;;;12.6;99.9;;;;;;;;;
2021/05/24 00:16:19;;;;;;;1.42;0.7;;;12.6;99.9;;;;;;;;;
2021/05/24 00:16:29;;;;;;;1.42;0.7;;;12.6;99.9;;;;;;;;;
2021/05/24 00:16:39;;;;;;;1.42;0.7;;;12.6;99.9;;;;;;;;;
2021/05/24 00:16:55;;;;;;;1.42;0.7;;;12.6;99.9;;;;;;;;;
2021/05/24 00:17:02;;;;;;;1.42;0.7;;;12.6;99.9;;;;;;;;;
2021/05/24 00:17:10;;;;;;;1.42;0.7;;;12.6;99.9;;;;;;;;;
2021/05/24 00:17:15;;;;;;;1.8;0.77;;;12.7;99.9;;;;;;;;;
2021/05/24 00:17:31;;;;;;;1.8;0.77;;;12.7;99.9;;;;;;;;;
2021/05/24 00:17:41;;;;;;;1.8;0.77;;;12.7;99.9;;;;;;;;;
2021/05/24 00:17:56;;;;;;;1.8;0.77;;;12.7;99.9;;;;;;;;;
2021/05/24 00:18:02;;;;;;;1.8;0.77;;;12.7;99.9;;;;;;;;;
2021/05/24 00:18:12;;;;;;;1.8;0.77;;;12.7;99.9;;;;;;;;;
2021/05/24 00:18:17;;;;;;;1.88;0.7;;;12.7;99.9;;;;;;;;;
2021/05/24 00:18:32;;;;;;;1.88;0.7;;;12.7;99.9;;;;;;;;;
2021/05/24 00:18:43;;;;;;;1.88;0.7;;;12.7;99.9;;;;;;;;;
2021/05/24 00:18:53;;;;;;;1.88;0.7;;;12.7;99.9;;;;;;;;;
2021/05/24 00:19:02;;;;;;;1.88;0.7;;;12.7;99.9;;;;;;;;;
2021/05/24 00:19:08;;;;;;;1.88;0.7;;;12.7;99.9;;;;;;;;;
2021/05/24 00:19:13;;;;;;;1.88;0.7;;;12.7;99.9;;;;;;;;;
2021/05/24 00:19:28;;;;;;;2.5;0.9;;;12.8;99.9;;;;;;;;;
2021/05/24 00:19:44;;;;;;;2.5;0.9;;;12.8;99.9;;;;;;;;;
2021/05/24 00:19:54;;;;;;;2.5;0.9;;;12.8;99.9;;;;;;;;;
2021/05/24 00:20:02;;;;;;;2.5;0.9;;;12.8;99.9;;;;;;;;;
2021/05/24 00:20:09;;;;;;;2.5;0.9;;;12.8;99.9;;;;;;;;;
2021/05/24 00:20:15;;;;;;;3.4;0.8;;;12.7;99.9;;;;;;;;;
2021/05/24 00:20:30;;;;;;;3.4;0.8;;;12.7;99.9;;;;;;;;;
2021/05/24 00:20:45;;;;;;;3.4;0.8;;;12.7;99.9;;;;;;;;;
2021/05/24 00:20:55;;;;;;;3.4;0.8;;;12.7;99.9;;;;;;;;;
2021/05/24 00:21:01;;;;;;;3.4;0.8;;;12.7;99.9;;;;;;;;;
2021/05/24 00:21:06;;;;;;;3.4;0.8;;;12.7;99.9;;;;;;;;;
2021/05/24 00:21:16;;;;;;;1.6;0.52;;;12.8;99.9;;;;;;;;;
2021/05/24 00:21:26;;;;;;;1.6;0.52;;;12.8;99.9;;;;;;;;;
2021/05/24 00:21:42;;;;;;;1.6;0.52;;;12.8;99.9;;;;;;;;;
2021/05/24 00:21:57;;;;;;;1.6;0.52;;;12.8;99.9;;;;;;;;;
2021/05/24 00:22:03;;;;;;;1.6;0.52;;;12.8;99.9;;;;;;;;;
2021/05/24 00:22:12;;;;;;;1.6;0.52;;;12.8;99.9;;;;;;;;;
2021/05/24 00:22:18;;;;;;;1.08;0.7;;;12.8;99.9;;;;;;;;;
2021/05/24 00:22:28;;;;;;;1.08;0.7;;;12.8;99.9;;;;;;;;;
2021/05/24 00:22:43;;;;;;;1.08;0.7;;;12.8;99.9;;;;;;;;;
2021/05/24 00:22:58;;;;;;;1.08;0.7;;;12.8;99.9;;;;;;;;;
2021/05/24 00:23:02;;;;;;;1.08;0.7;;;12.8;99.9;;;;;;;;;
2021/05/24 00:23:09;;;;;;;1.08;0.7;;;12.8;99.9;;;;;;;;;
2021/05/24 00:23:14;;;;;;;1.08;0.7;;;12.8;99.9;;;;;;;;;
2021/05/24 00:23:29;;;;;;;2.83;1.25;;;12.8;99.9;;;;;;;;;
2021/05/24 00:23:39;;;;;;;2.83;1.25;;;12.8;99.9;;;;;;;;;
2021/05/24 00:23:55;;;;;;;2.83;1.25;;;12.8;99.9;;;;;;;;;
2021/05/24 00:24:01;;;;;;;2.83;1.25;;;12.8;99.9;;;;;;;;;
2021/05/24 00:24:10;;;;;;;2.83;1.25;;;12.8;99.9;;;;;;;;;
2021/05/24 00:24:15;;;;;;;2.35;0.9;;;12.8;99.9;;;;;;;;;
2021/05/24 00:24:31;;;;;;;2.35;0.9;;;12.8;99.9;;;;;;;;;
2021/05/24 00:24:41;;;;;;;2.35;0.9;;;12.8;99.9;;;;;;;;;
2021/05/24 00:24:56;;;;;;;2.35;0.9;;;12.8;99.9;;;;;;;;;
2021/05/24 00:25:02;;;;;;;2.35;0.9;;;12.8;99.9;;;;;;;;;
2021/05/24 00:25:12;;;;;;;2.35;0.9;;;12.8;99.9;;;;;;;;;
2021/05/24 00:25:17;;;;;;;0.93;0.8;;;12.8;99.9;;;;;;;;;
2021/05/24 00:25:27;;;;;;;0.93;0.8;;;12.8;99.9;;;;;;;;;
2021/05/24 00:25:42;;;;;;;0.93;0.8;;;12.8;99.9;;;;;;;;;
2021/05/24 00:25:52;;;;;;;0.93;0.8;;;12.8;99.9;;;;;;;;;
2021/05/24 00:26:02;;;;;;;0.93;0.8;;;12.8;99.9;;;;;;;;;
2021/05/24 00:26:08;;;;;;;0.93;0.8;;;12.8;99.9;;;;;;;;;
2021/05/24 00:26:13;;;;;;;0.93;0.8;;;12.8;99.9;;;;;;;;;
2021/05/24 00:26:28;;;;;;;1.45;1;;;12.7;99.9;;;;;;;;;
2021/05/24 00:26:44;;;;;;;1.45;1;;;12.7;99.9;;;;;;;;;
2021/05/24 00:26:54;;;;;;;1.45;1;;;12.7;99.9;;;;;;;;;
2021/05/24 00:27:02;;;;;;;1.45;1;;;12.7;99.9;;;;;;;;;
2021/05/24 00:27:09;;;;;;;1.45;1;;;12.7;99.9;;;;;;;;;
2021/05/24 00:27:14;;;;;;;1.45;1;;;12.7;99.9;;;;;;;;;
2021/05/24 00:27:30;;;;;;;4.4;0.85;;;12.7;99.9;;;;;;;;;
2021/05/24 00:27:40;;;;;;;4.4;0.85;;;12.7;99.9;;;;;;;;;
2021/05/24 00:27:55;;;;;;;4.4;0.85;;;12.7;99.9;;;;;;;;;
2021/05/24 00:28:02;;;;;;;4.4;0.85;;;12.7;99.9;;;;;;;;;
2021/05/24 00:28:06;;;;;;;4.4;0.85;;;12.7;99.9;;;;;;;;;
2021/05/24 00:28:16;;;;;;;4.4;0.85;;;12.7;99.9;;;;;;;;;
2021/05/24 00:28:26;;;;;;;0.85;0.6;;;12.8;99.9;;;;;;;;;
2021/05/24 00:28:41;;;;;;;0.85;0.6;;;12.8;99.9;;;;;;;;;
2021/05/24 00:28:57;;;;;;;0.85;0.6;;;12.8;99.9;;;;;;;;;
2021/05/24 00:29:02;;;;;;;0.85;0.6;;;12.8;99.9;;;;;;;;;
2021/05/24 00:29:14;;;;;;;0.85;0.6;;;12.8;99.9;;;;;;;;;
2021/05/24 00:29:15;;;;;;;0.85;0.6;;;12.8;99.9;;;;;;;;;
2021/05/24 00:29:28;;;;;;;1.9;0.77;;;12.8;99.9;;;;;;;;;
2021/05/24 00:29:43;;;;;;;1.9;0.77;;;12.8;99.9;;;;;;;;;
2021/05/24 00:29:53;;;;;;;1.9;0.77;;;12.8;99.9;;;;;;;;;
2021/05/24 00:30:02;;;;;;;1.9;0.77;;;12.8;99.9;;;;;;;;;
2021/05/24 00:30:09;;;;;;;1.9;0.77;;;12.8;99.9;;;;;;;;;
2021/05/24 00:30:14;;;;;;;1.9;0.77;;;12.8;99.9;;;;;;;;;
2021/05/24 00:30:33;;;;;;;3.05;0.9;;;12.8;99.9;;;;;;;;;
2021/05/24 00:30:39;;;;;;;3.05;0.9;;;12.8;99.9;;;;;;;;;
2021/05/24 00:30:55;;;;;;;3.05;0.9;;;12.8;99.9;;;;;;;;;
2021/05/24 00:31:01;;;;;;;3.05;0.9;;;12.8;99.9;;;;;;;;;
2021/05/24 00:31:10;;;;;;;3.05;0.9;;;12.8;99.9;;;;;;;;;
2021/05/24 00:31:15;;;;;;;3.05;0.9;;;12.8;99.9;;;;;;;;;
2021/05/24 00:31:25;;;;;;;1.23;0.7;;;12.9;99.9;;;;;;;;;
2021/05/24 00:31:41;;;;;;;1.23;0.7;;;12.9;99.9;;;;;;;;;
2021/05/24 00:31:56;;;;;;;1.23;0.7;;;12.9;99.9;;;;;;;;;
2021/05/24 00:32:02;;;;;;;1.23;0.7;;;12.9;99.9;;;;;;;;;
2021/05/24 00:32:06;;;;;;;1.23;0.7;;;12.9;99.9;;;;;;;;;
2021/05/24 00:32:16;;;;;;;1.23;0.7;;;12.9;99.9;;;;;;;;;
2021/05/24 00:32:27;;;;;;;2.38;0.6;;;12.8;99.9;;;;;;;;;
2021/05/24 00:32:47;;;;;;;2.38;0.6;;;12.8;99.9;;;;;;;;;
2021/05/24 00:32:52;;;;;;;2.38;0.6;;;12.8;99.9;;;;;;;;;
2021/05/24 00:33:02;;;;;;;2.38;0.6;;;12.8;99.9;;;;;;;;;
2021/05/24 00:33:08;;;;;;;2.38;0.6;;;12.8;99.9;;;;;;;;;
2021/05/24 00:33:13;;;;;;;2.38;0.6;;;12.8;99.9;;;;;;;;;
2021/05/24 00:33:28;;;;;;;1.83;0.7;;;12.9;99.9;;;;;;;;;
2021/05/24 00:33:38;;;;;;;1.83;0.7;;;12.9;99.9;;;;;;;;;
2021/05/24 00:33:54;;;;;;;1.83;0.7;;;12.9;99.9;;;;;;;;;
2021/05/24 00:34:02;;;;;;;1.83;0.7;;;12.9;99.9;;;;;;;;;
2021/05/24 00:34:09;;;;;;;1.83;0.7;;;12.9;99.9;;;;;;;;;
2021/05/24 00:34:14;;;;;;;1.83;0.7;;;12.9;99.9;;;;;;;;;
2021/05/24 00:34:30;;;;;;;2.45;0.8;;;12.8;99.9;;;;;;;;;
2021/05/24 00:34:40;;;;;;;2.45;0.8;;;12.8;99.9;;;;;;;;;
2021/05/24 00:35:00;;;;;;;2.45;0.8;;;12.8;99.9;;;;;;;;;
2021/05/24 00:35:02;;;;;;;2.45;0.8;;;12.8;99.9;;;;;;;;;
2021/05/24 00:35:05;;;;;;;2.45;0.8;;;12.8;99.9;;;;;;;;;
2021/05/24 00:35:16;;;;;;;2.45;0.8;;;12.8;99.9;;;;;;;;;
2021/05/24 00:35:26;;;;;;;1.48;0.57;;;12.8;99.9;;;;;;;;;
2021/05/24 00:35:41;;;;;;;1.48;0.57;;;12.8;99.9;;;;;;;;;
2021/05/24 00:35:51;;;;;;;1.48;0.57;;;12.8;99.9;;;;;;;;;
2021/05/24 00:36:01;;;;;;;1.48;0.57;;;12.8;99.9;;;;;;;;;
2021/05/24 00:36:07;;;;;;;1.48;0.57;;;12.8;99.9;;;;;;;;;
2021/05/24 00:36:12;;;;;;;1.48;0.57;;;12.8;99.9;;;;;;;;;
2021/05/24 00:36:27;;;;;;;1.58;0.6;;;12.8;99.9;;;;;;;;;
2021/05/24 00:36:43;;;;;;;1.58;0.6;;;12.8;99.9;;;;;;;;;
2021/05/24 00:36:55;;;;;;;1.58;0.6;;;12.8;99.9;;;;;;;;;
2021/05/24 00:37:02;;;;;;;1.58;0.6;;;12.8;99.9;;;;;;;;;
2021/05/24 00:37:13;;;;;;;1.58;0.6;;;12.8;99.9;;;;;;;;;
2021/05/24 00:37:13;;;;;;;1.58;0.6;;;12.8;99.9;;;;;;;;;
2021/05/24 00:37:29;;;;;;;3.85;0.82;;;12.9;99.9;;;;;;;;;
2021/05/24 00:37:39;;;;;;;3.85;0.82;;;12.9;99.9;;;;;;;;;
2021/05/24 00:37:54;;;;;;;3.85;0.82;;;12.9;99.9;;;;;;;;;
2021/05/24 00:38:02;;;;;;;3.85;0.82;;;12.9;99.9;;;;;;;;;
2021/05/24 00:38:05;;;;;;;3.85;0.82;;;12.9;99.9;;;;;;;;;
2021/05/24 00:38:15;;;;;;;3.85;0.82;;;12.9;99.9;;;;;;;;;
2021/05/24 00:38:25;;;;;;;3.55;0.8;;;12.8;99.9;;;;;;;;;
2021/05/24 00:38:40;;;;;;;3.55;0.8;;;12.8;99.9;;;;;;;;;
2021/05/24 00:38:56;;;;;;;3.55;0.8;;;12.8;99.9;;;;;;;;;
2021/05/24 00:39:02;;;;;;;3.55;0.8;;;12.8;99.9;;;;;;;;;
2021/05/24 00:39:07;;;;;;;3.55;0.8;;;12.8;99.9;;;;;;;;;
2021/05/24 00:39:16;;;;;;;3.55;0.8;;;12.8;99.9;;;;;;;;;
2021/05/24 00:39:27;;;;;;;1.3;0.8;;;12.8;99.9;;;;;;;;;
2021/05/24 00:39:42;;;;;;;1.3;0.8;;;12.8;99.9;;;;;;;;;
2021/05/24 00:39:53;;;;;;;1.3;0.8;;;12.8;99.9;;;;;;;;;
2021/05/24 00:40:02;;;;;;;1.3;0.8;;;12.8;99.9;;;;;;;;;
2021/05/24 00:40:07;;;;;;;1.3;0.8;;;12.8;99.9;;;;;;;;;
2021/05/24 00:40:18;;;;;;;1.3;0.8;;;12.8;99.9;;;;;;;;;
2021/05/24 00:40:28;;;;;;;2.6;0.75;;;12.8;99.9;;;;;;;;;
2021/05/24 00:40:38;;;;;;;2.6;0.75;;;12.8;99.9;;;;;;;;;
2021/05/24 00:40:54;;;;;;;2.6;0.75;;;12.8;99.9;;;;;;;;;
2021/05/24 00:41:01;;;;;;;2.6;0.75;;;12.8;99.9;;;;;;;;;
2021/05/24 00:41:09;;;;;;;2.6;0.75;;;12.8;99.9;;;;;;;;;
2021/05/24 00:41:14;;;;;;;2.6;0.75;;;12.8;99.9;;;;;;;;;
2021/05/24 00:41:29;;;;;;;1.5;0.7;;;12.9;99.9;;;;;;;;;
2021/05/24 00:41:40;;;;;;;1.5;0.7;;;12.9;99.9;;;;;;;;;
2021/05/24 00:41:55;;;;;;;1.5;0.7;;;12.9;99.9;;;;;;;;;
2021/05/24 00:42:02;;;;;;;1.5;0.7;;;12.9;99.9;;;;;;;;;
2021/05/24 00:42:05;;;;;;;1.5;0.7;;;12.9;99.9;;;;;;;;;
2021/05/24 00:42:15;;;;;;;1.5;0.7;;;12.9;99.9;;;;;;;;;
2021/05/24 00:42:31;;;;;;;1.58;0.7;;;12.8;99.9;;;;;;;;;
2021/05/24 00:42:41;;;;;;;1.58;0.7;;;12.8;99.9;;;;;;;;;
2021/05/24 00:42:51;;;;;;;1.58;0.7;;;12.8;99.9;;;;;;;;;
2021/05/24 00:43:02;;;;;;;1.58;0.7;;;12.8;99.9;;;;;;;;;
2021/05/24 00:43:07;;;;;;;1.58;0.7;;;12.8;99.9;;;;;;;;;
2021/05/24 00:43:12;;;;;;;1.58;0.7;;;12.8;99.9;;;;;;;;;
2021/05/24 00:43:27;;;;;;;2.63;0.7;;;12.9;99.9;;;;;;;;;
2021/05/24 00:43:43;;;;;;;2.63;0.7;;;12.9;99.9;;;;;;;;;
2021/05/24 00:43:53;;;;;;;2.63;0.7;;;12.9;99.9;;;;;;;;;
2021/05/24 00:44:02;;;;;;;2.63;0.7;;;12.9;99.9;;;;;;;;;
2021/05/24 00:44:08;;;;;;;2.63;0.7;;;12.9;99.9;;;;;;;;;
2021/05/24 00:44:13;;;;;;;2.63;0.7;;;12.9;99.9;;;;;;;;;
2021/05/24 00:44:29;;;;;;;1;0.75;;;12.9;99.9;;;;;;;;;
2021/05/24 00:44:44;;;;;;;1;0.75;;;12.9;99.9;;;;;;;;;
2021/05/24 00:44:54;;;;;;;1;0.75;;;12.9;99.9;;;;;;;;;
2021/05/24 00:45:02;;;;;;;1;0.75;;;12.9;99.9;;;;;;;;;
2021/05/24 00:45:04;;;;;;;1;0.75;;;12.9;99.9;;;;;;;;;
2021/05/24 00:45:20;;;;;;;1;0.75;;;12.9;99.9;;;;;;;;;
2021/05/24 00:45:25;;;;;;;1.92;0.85;;;12.9;99.9;;;;;;;;;
2021/05/24 00:45:40;;;;;;;1.92;0.85;;;12.9;99.9;;;;;;;;;
2021/05/24 00:45:56;;;;;;;1.92;0.85;;;12.9;99.9;;;;;;;;;
2021/05/24 00:46:01;;;;;;;1.92;0.85;;;12.9;99.9;;;;;;;;;
2021/05/24 00:46:06;;;;;;;1.92;0.85;;;12.9;99.9;;;;;;;;;
2021/05/24 00:46:16;;;;;;;1.92;0.85;;;12.9;99.9;;;;;;;;;
2021/05/24 00:46:26;;;;;;;1.67;0.5;;;12.9;99.9;;;;;;;;;
2021/05/24 00:46:42;;;;;;;1.67;0.5;;;12.9;99.9;;;;;;;;;
2021/05/24 00:46:57;;;;;;;1.67;0.5;;;12.9;99.9;;;;;;;;;
2021/05/24 00:47:02;;;;;;;1.67;0.5;;;12.9;99.9;;;;;;;;;
2021/05/24 00:47:07;;;;;;;1.67;0.5;;;12.9;99.9;;;;;;;;;
2021/05/24 00:47:18;;;;;;;1.67;0.5;;;12.9;99.9;;;;;;;;;
2021/05/24 00:47:33;;;;;;;1.83;0.9;;;12.9;99.9;;;;;;;;;
2021/05/24 00:47:38;;;;;;;1.83;0.9;;;12.9;99.9;;;;;;;;;
2021/05/24 00:47:53;;;;;;;1.83;0.9;;;12.9;99.9;;;;;;;;;
2021/05/24 00:48:03;;;;;;;1.83;0.9;;;12.9;99.9;;;;;;;;;
2021/05/24 00:48:09;;;;;;;1.83;0.9;;;12.9;99.9;;;;;;;;;
2021/05/24 00:48:14;;;;;;;1.83;0.9;;;12.9;99.9;;;;;;;;;
2021/05/24 00:48:29;;;;;;;4.4;0.8;;;12.8;99.9;;;;;;;;;
2021/05/24 00:48:39;;;;;;;4.4;0.8;;;12.8;99.9;;;;;;;;;
2021/05/24 00:48:55;;;;;;;4.4;0.8;;;12.8;99.9;;;;;;;;;
2021/05/24 00:49:02;;;;;;;4.4;0.8;;;12.8;99.9;;;;;;;;;
2021/05/24 00:49:10;;;;;;;4.4;0.8;;;12.8;99.9;;;;;;;;;
2021/05/24 00:49:15;;;;;;;4.4;0.8;;;12.8;99.9;;;;;;;;;
2021/05/24 00:49:31;;;;;;;1.15;0.82;;;12.8;99.9;;;;;;;;;
2021/05/24 00:49:46;;;;;;;1.15;0.82;;;12.8;99.9;;;;;;;;;
2021/05/24 00:49:51;;;;;;;1.15;0.82;;;12.8;99.9;;;;;;;;;
2021/05/24 00:50:02;;;;;;;1.15;0.82;;;12.8;99.9;;;;;;;;;
2021/05/24 00:50:07;;;;;;;1.15;0.82;;;12.8;99.9;;;;;;;;;
2021/05/24 00:50:17;;;;;;;1.15;0.82;;;12.8;99.9;;;;;;;;;
2021/05/24 00:50:27;;;;;;;1.45;0.6;;;12.9;99.9;;;;;;;;;
2021/05/24 00:50:42;;;;;;;1.45;0.6;;;12.9;99.9;;;;;;;;;
2021/05/24 00:50:53;;;;;;;1.45;0.6;;;12.9;99.9;;;;;;;;;
2021/05/24 00:51:02;;;;;;;1.45;0.6;;;12.9;99.9;;;;;;;;;
2021/05/24 00:51:08;;;;;;;1.45;0.6;;;12.9;99.9;;;;;;;;;
2021/05/24 00:51:18;;;;;;;1.45;0.6;;;12.9;99.9;;;;;;;;;
2021/05/24 00:51:28;;;;;;;2.88;0.52;;;12.9;99.9;;;;;;;;;
2021/05/24 00:51:44;;;;;;;2.88;0.52;;;12.9;99.9;;;;;;;;;
2021/05/24 00:51:59;;;;;;;2.88;0.52;;;12.9;99.9;;;;;;;;;
2021/05/24 00:52:02;;;;;;;2.88;0.52;;;12.9;99.9;;;;;;;;;
2021/05/24 00:52:04;;;;;;;2.88;0.52;;;12.9;99.9;;;;;;;;;
2021/05/24 00:52:15;;;;;;;2.88;0.52;;;12.9;99.9;;;;;;;;;
2021/05/24 00:52:30;;;;;;;1.88;0.6;;;12.9;99.9;;;;;;;;;
2021/05/24 00:52:40;;;;;;;1.88;0.6;;;12.9;99.9;;;;;;;;;
2021/05/24 00:52:56;;;;;;;1.88;0.6;;;12.9;99.9;;;;;;;;;
2021/05/24 00:53:01;;;;;;;1.88;0.6;;;12.9;99.9;;;;;;;;;
2021/05/24 00:53:06;;;;;;;1.88;0.6;;;12.9;99.9;;;;;;;;;
2021/05/24 00:53:16;;;;;;;1.88;0.6;;;12.9;99.9;;;;;;;;;
2021/05/24 00:53:31;;;;;;;0.7;0.7;;;12.9;99.9;;;;;;;;;
2021/05/24 00:53:43;;;;;;;0.7;0.7;;;12.9;99.9;;;;;;;;;
2021/05/24 00:53:57;;;;;;;0.7;0.7;;;12.9;99.9;;;;;;;;;
2021/05/24 00:54:02;;;;;;;0.7;0.7;;;12.9;99.9;;;;;;;;;
2021/05/24 00:54:12;;;;;;;0.7;0.7;;;12.9;99.9;;;;;;;;;
2021/05/24 00:54:12;;;;;;;0.7;0.7;;;12.9;99.9;;;;;;;;;
2021/05/24 00:54:28;;;;;;;1.25;0.6;;;12.9;99.9;;;;;;;;;
2021/05/24 00:54:43;;;;;;;1.25;0.6;;;12.9;99.9;;;;;;;;;
2021/05/24 00:54:53;;;;;;;1.25;0.6;;;12.9;99.9;;;;;;;;;
2021/05/24 00:55:02;;;;;;;1.25;0.6;;;12.9;99.9;;;;;;;;;
2021/05/24 00:55:09;;;;;;;1.25;0.6;;;12.9;99.9;;;;;;;;;
2021/05/24 00:55:14;;;;;;;1.25;0.6;;;12.9;99.9;;;;;;;;;
2021/05/24 00:55:29;;;;;;;1.7;0.65;;;12.8;99.9;;;;;;;;;
2021/05/24 00:55:45;;;;;;;1.7;0.65;;;12.8;99.9;;;;;;;;;
2021/05/24 00:55:55;;;;;;;1.7;0.65;;;12.8;99.9;;;;;;;;;
2021/05/24 00:56:01;;;;;;;1.7;0.65;;;12.8;99.9;;;;;;;;;
2021/05/24 00:56:10;;;;;;;1.7;0.65;;;12.8;99.9;;;;;;;;;
2021/05/24 00:56:15;;;;;;;1.7;0.65;;;12.8;99.9;;;;;;;;;
2021/05/24 00:56:25;;;;;;;0.8;0.52;;;12.8;99.9;;;;;;;;;
2021/05/24 00:56:41;;;;;;;0.8;0.52;;;12.8;99.9;;;;;;;;;
2021/05/24 00:56:56;;;;;;;0.8;0.52;;;12.8;99.9;;;;;;;;;
2021/05/24 00:57:02;;;;;;;0.8;0.52;;;12.8;99.9;;;;;;;;;
2021/05/24 00:57:06;;;;;;;0.8;0.52;;;12.8;99.9;;;;;;;;;
2021/05/24 00:57:17;;;;;;;0.8;0.52;;;12.8;99.9;;;;;;;;;
2021/05/24 00:57:27;;;;;;;2.08;0.7;;;12.8;99.9;;;;;;;;;
2021/05/24 00:57:43;;;;;;;2.08;0.7;;;12.8;99.9;;;;;;;;;
2021/05/24 00:57:58;;;;;;;2.08;0.7;;;12.8;99.9;;;;;;;;;
2021/05/24 00:58:01;;;;;;;2.08;0.7;;;12.8;99.9;;;;;;;;;
2021/05/24 00:58:08;;;;;;;2.08;0.7;;;12.8;99.9;;;;;;;;;
2021/05/24 00:58:13;;;;;;;2.08;0.7;;;12.8;99.9;;;;;;;;;
2021/05/24 00:58:28;;;;;;;1.05;0.47;;;12.9;99.9;;;;;;;;;
2021/05/24 00:58:39;;;;;;;1.05;0.47;;;12.9;99.9;;;;;;;;;
2021/05/24 00:58:54;;;;;;;1.05;0.47;;;12.9;99.9;;;;;;;;;
2021/05/24 00:59:02;;;;;;;1.05;0.47;;;12.9;99.9;;;;;;;;;
2021/05/24 00:59:09;;;;;;;1.05;0.47;;;12.9;99.9;;;;;;;;;
2021/05/24 00:59:14;;;;;;;1.05;0.47;;;12.9;99.9;;;;;;;;;
2021/05/24 00:59:30;;;;;;;0.8;0.55;;;12.8;99.9;;;;;;;;;
2021/05/24 00:59:40;;;;;;;0.8;0.55;;;12.8;99.9;;;;;;;;;
2021/05/24 00:59:55;;;;;;;0.8;0.55;;;12.8;99.9;;;;;;;;;
2021/05/24 01:00:02;;;;;;;0.8;0.55;;;12.8;99.9;;;;;;;;;
2021/05/24 01:00:11;;;;;;;0.8;0.55;;;12.8;99.9;;;;;;;;;
2021/05/24 01:00:16;;;;;;;0.8;0.55;;;12.8;99.9;;;;;;;;;
2021/05/24 01:00:26;;;;;;;2.88;0.73;;;12.9;99.9;;;;;;;;;
2021/05/24 01:00:41;;;;;;;2.88;0.73;;;12.9;99.9;;;;;;;;;
2021/05/24 01:00:52;;;;;;;2.88;0.73;;;12.9;99.9;;;;;;;;;
2021/05/24 01:01:02;;;;;;;2.88;0.73;;;12.9;99.9;;;;;;;;;
2021/05/24 01:01:07;;;;;;;2.88;0.73;;;12.9;99.9;;;;;;;;;
2021/05/24 01:01:12;;;;;;;2.88;0.73;;;12.9;99.9;;;;;;;;;
2021/05/24 01:01:29;;;;;;;1.75;0.57;;;12.9;99.9;;;;;;;;;
2021/05/24 01:01:43;;;;;;;1.75;0.57;;;12.9;99.9;;;;;;;;;
2021/05/24 01:01:54;;;;;;;1.75;0.57;;;12.9;99.9;;;;;;;;;
2021/05/24 01:02:02;;;;;;;1.75;0.57;;;12.9;99.9;;;;;;;;;
2021/05/24 01:02:08;;;;;;;1.75;0.57;;;12.9;99.9;;;;;;;;;
2021/05/24 01:02:14;;;;;;;1.75;0.57;;;12.9;99.9;;;;;;;;;
2021/05/24 01:02:34;;;;;;;0.8;0.5;;;12.8;99.9;;;;;;;;;
2021/05/24 01:02:39;;;;;;;0.8;0.5;;;12.8;99.9;;;;;;;;;
2021/05/24 01:02:56;;;;;;;0.8;0.5;;;12.8;99.9;;;;;;;;;
2021/05/24 01:03:03;;;;;;;0.8;0.5;;;12.8;99.9;;;;;;;;;
2021/05/24 01:03:05;;;;;;;0.8;0.5;;;12.8;99.9;;;;;;;;;
2021/05/24 01:03:15;;;;;;;0.8;0.5;;;12.8;99.9;;;;;;;;;
2021/05/24 01:03:28;;;;;;;0.8;0.5;;;12.8;99.9;;;;;;;;;
2021/05/24 01:03:41;;;;;;;3.85;0.6;;;12.9;99.9;;;;;;;;;
2021/05/24 01:03:57;;;;;;;3.85;0.6;;;12.9;99.9;;;;;;;;;
2021/05/24 01:04:02;;;;;;;3.85;0.6;;;12.9;99.9;;;;;;;;;
2021/05/24 01:04:06;;;;;;;3.85;0.6;;;12.9;99.9;;;;;;;;;
2021/05/24 01:04:18;;;;;;;3.85;0.6;;;12.9;99.9;;;;;;;;;
2021/05/24 01:04:27;;;;;;;3.85;0.6;;;12.9;99.9;;;;;;;;;
2021/05/24 01:04:47;;;;;;;1.4;0.55;;;12.9;99.9;;;;;;;;;
2021/05/24 01:04:54;;;;;;;1.4;0.55;;;12.9;99.9;;;;;;;;;
2021/05/24 01:05:02;;;;;;;1.4;0.55;;;12.9;99.9;;;;;;;;;
2021/05/24 01:05:08;;;;;;;1.4;0.55;;;12.9;99.9;;;;;;;;;
2021/05/24 01:05:18;;;;;;;1.4;0.55;;;12.9;99.9;;;;;;;;;
2021/05/24 01:05:28;;;;;;;0.68;0.6;;;12.8;99.9;;;;;;;;;
2021/05/24 01:05:38;;;;;;;0.68;0.6;;;12.8;99.9;;;;;;;;;
2021/05/24 01:05:54;;;;;;;0.68;0.6;;;12.8;99.9;;;;;;;;;
2021/05/24 01:06:01;;;;;;;0.68;0.6;;;12.8;99.9;;;;;;;;;
2021/05/24 01:06:09;;;;;;;0.68;0.6;;;12.8;99.9;;;;;;;;;
2021/05/24 01:06:14;;;;;;;0.68;0.6;;;12.8;99.9;;;;;;;;;
2021/05/24 01:06:30;;;;;;;2.03;0.9;;;12.8;99.9;;;;;;;;;
2021/05/24 01:06:40;;;;;;;2.03;0.9;;;12.8;99.9;;;;;;;;;
2021/05/24 01:07:00;;;;;;;2.03;0.9;;;12.8;99.9;;;;;;;;;
2021/05/24 01:07:02;;;;;;;2.03;0.9;;;12.8;99.9;;;;;;;;;
2021/05/24 01:07:05;;;;;;;2.03;0.9;;;12.8;99.9;;;;;;;;;
2021/05/24 01:07:16;;;;;;;2.03;0.9;;;12.8;99.9;;;;;;;;;
2021/05/24 01:07:31;;;;;;;0.93;0.43;;;12.7;99.9;;;;;;;;;
2021/05/24 01:07:41;;;;;;;0.93;0.43;;;12.7;99.9;;;;;;;;;
2021/05/24 01:07:52;;;;;;;0.93;0.43;;;12.7;99.9;;;;;;;;;
2021/05/24 01:08:01;;;;;;;0.93;0.43;;;12.7;99.9;;;;;;;;;
2021/05/24 01:08:07;;;;;;;0.93;0.43;;;12.7;99.9;;;;;;;;;
2021/05/24 01:08:12;;;;;;;0.93;0.43;;;12.7;99.9;;;;;;;;;
2021/05/24 01:08:27;;;;;;;0.93;0.43;;;12.7;99.9;;;;;;;;;
2021/05/24 01:08:43;;;;;;;2.15;0.85;;;12.8;99.9;;;;;;;;;
2021/05/24 01:08:53;;;;;;;2.15;0.85;;;12.8;99.9;;;;;;;;;
2021/05/24 01:09:02;;;;;;;2.15;0.85;;;12.8;99.9;;;;;;;;;
2021/05/24 01:09:15;;;;;;;2.15;0.85;;;12.8;99.9;;;;;;;;;
2021/05/24 01:09:16;;;;;;;2.15;0.85;;;12.8;99.9;;;;;;;;;
2021/05/24 01:09:29;;;;;;;1.98;0.7;;;12.9;99.9;;;;;;;;;
2021/05/24 01:09:44;;;;;;;1.98;0.7;;;12.9;99.9;;;;;;;;;
2021/05/24 01:09:55;;;;;;;1.98;0.7;;;12.9;99.9;;;;;;;;;
2021/05/24 01:10:02;;;;;;;1.98;0.7;;;12.9;99.9;;;;;;;;;
2021/05/24 01:10:05;;;;;;;1.98;0.7;;;12.9;99.9;;;;;;;;;
2021/05/24 01:10:15;;;;;;;1.98;0.7;;;12.9;99.9;;;;;;;;;
2021/05/24 01:10:25;;;;;;;1.98;0.7;;;12.9;99.9;;;;;;;;;
2021/05/24 01:10:40;;;;;;;2.92;0.7;;;12.9;99.9;;;;;;;;;
2021/05/24 01:10:56;;;;;;;2.92;0.7;;;12.9;99.9;;;;;;;;;
2021/05/24 01:11:02;;;;;;;2.92;0.7;;;12.9;99.9;;;;;;;;;
2021/05/24 01:11:06;;;;;;;2.92;0.7;;;12.9;99.9;;;;;;;;;
2021/05/24 01:11:16;;;;;;;2.92;0.7;;;12.9;99.9;;;;;;;;;
2021/05/24 01:11:26;;;;;;;2.92;0.7;;;12.9;99.9;;;;;;;;;
2021/05/24 01:11:42;;;;;;;1.77;0.7;;;12.8;99.9;;;;;;;;;
2021/05/24 01:11:57;;;;;;;1.77;0.7;;;12.8;99.9;;;;;;;;;
2021/05/24 01:12:02;;;;;;;1.77;0.7;;;12.8;99.9;;;;;;;;;
2021/05/24 01:12:07;;;;;;;1.77;0.7;;;12.8;99.9;;;;;;;;;
2021/05/24 01:12:18;;;;;;;1.77;0.7;;;12.8;99.9;;;;;;;;;
2021/05/24 01:12:28;;;;;;;1.77;0.7;;;12.8;99.9;;;;;;;;;
2021/05/24 01:12:38;;;;;;;2.4;0.7;;;12.8;99.9;;;;;;;;;
2021/05/24 01:12:54;;;;;;;2.4;0.7;;;12.8;99.9;;;;;;;;;
2021/05/24 01:13:03;;;;;;;2.4;0.7;;;12.8;99.9;;;;;;;;;
2021/05/24 01:13:11;;;;;;;2.4;0.7;;;12.8;99.9;;;;;;;;;
2021/05/24 01:13:16;;;;;;;2.4;0.7;;;12.8;99.9;;;;;;;;;
2021/05/24 01:13:29;;;;;;;2.4;0.7;;;12.8;99.9;;;;;;;;;
2021/05/24 01:13:40;;;;;;;0.88;0.52;;;12.9;99.9;;;;;;;;;
2021/05/24 01:13:55;;;;;;;0.88;0.52;;;12.9;99.9;;;;;;;;;
2021/05/24 01:14:02;;;;;;;0.88;0.52;;;12.9;99.9;;;;;;;;;
2021/05/24 01:14:10;;;;;;;0.88;0.52;;;12.9;99.9;;;;;;;;;
2021/05/24 01:14:15;;;;;;;0.88;0.52;;;12.9;99.9;;;;;;;;;
2021/05/24 01:14:31;;;;;;;0.85;0.68;;;12.8;99.9;;;;;;;;;
2021/05/24 01:14:41;;;;;;;0.85;0.68;;;12.8;99.9;;;;;;;;;
2021/05/24 01:14:51;;;;;;;0.85;0.68;;;12.8;99.9;;;;;;;;;
2021/05/24 01:15:02;;;;;;;0.85;0.68;;;12.8;99.9;;;;;;;;;
2021/05/24 01:15:07;;;;;;;0.85;0.68;;;12.8;99.9;;;;;;;;;
2021/05/24 01:15:17;;;;;;;0.85;0.68;;;12.8;99.9;;;;;;;;;
2021/05/24 01:15:28;;;;;;;0.85;0.68;;;12.8;99.9;;;;;;;;;
2021/05/24 01:15:43;;;;;;;3.3;0.6;;;12.9;99.9;;;;;;;;;
2021/05/24 01:15:53;;;;;;;3.3;0.6;;;12.9;99.9;;;;;;;;;